Terminal Aerodrome Forecast
Issued by NWS Wakefield, VA

Home | Current Version | Previous Version | Text Only | Print | Product List | Glossary On
Versions: 1 2 3 4 5 6 7 8 9 10 11 12 13 14 15 16 17 18 19 20
967
FTUS41 KAKQ 290037 AAA
TAFORF
TAF AMD
KORF 290037Z 2901/2924 28011KT 3SM -RA VCTS BKN040CB OVC100
     FM290115 28006KT P6SM BKN150
     FM290700 33008KT P6SM BKN070
     FM290900 35009KT P6SM BKN030
     FM291100 01011KT P6SM BKN010
     FM291500 36013G20KT P6SM SCT100=

USA.gov is the U.S. government's official web portal to all federal, state and local government web resources and services.